Nearby METAR Reports

 

KBJC - Broomfield/Jeffc, Colorado, USA
Distance from station: N 0mi, 0km
Updated: Thu, 20-Jun-2024 5:45pm MDT
Nearby showers, Overcast
Nearby showers, Overcast
 Wind from ENE
Wind: ENE 10 mph , 17 km/h
Temperature: 77°F , 25°C
Dew Point: 50°F , 10°C
Humidity: 39%
Barometer: 30.10 inHg , 1019.3 hPa
Summary: Nearby Showers
Clouds: Overcast
Visibility: 10 miles , 16 km
Cloud details: Mostly cloudy 10000 ft
Overcast 12000 ft
2024/06/20 23:45 KBJC 202345Z 06009KT 10SM VCSH BKN100 OVC120 25/10 A3010
KEIK - Erie Muni, Colorado, USA
Distance from station: N 5mi, 9km
Updated: Thu, 20-Jun-2024 5:55pm MDT
Mostly cloudy
Mostly cloudy
 Wind from E
Wind: E 10 mph , 17 km/h
Temperature: 81°F , 27°C
Dew Point: 50°F , 10°C
Humidity: 34%
Barometer: 30.05 inHg , 1017.6 hPa
Clouds: Mostly cloudy
Visibility: 9 miles , 14 km
Cloud details: Mostly cloudy 14000 ft
2024/06/20 23:55 KEIK 202355Z AUTO 09009KT 9SM BKN140 27/10 A3005 RMK AO2 LTG DSNT NE AND E AND S T02710100
 
KBDU - Boulder Muni, Colorado, USA
Distance from station: NW 11mi, 17km
Updated: Thu, 20-Jun-2024 5:55pm MDT
Clear
Clear
 Wind from WSW
Wind: WSW 3 mph , 6 km/h
Temperature: 77°F , 25°C
Dew Point: 50°F , 10°C
Humidity: 39%
Barometer: 30.08 inHg , 1018.6 hPa
Clouds: Clear
Visibility: 10 miles , 16 km
2024/06/20 23:55 KBDU 202355Z AUTO 24003KT 10SM CLR 25/10 A3008 RMK AO2 LTG DSNT E
KLMO - Longmont/Vbrand, Colorado, USA
Distance from station: NNW 16mi, 27km
Updated: Tue, 18-Jun-2024 2:46pm MDT
NOT Current
Clear
Clear
 Wind from SE
Wind: SE 13 mph , 20 km/h, Gust: 18 mph , 30 km/h
Temperature: 75°F , 24°C
Dew Point: 25°F , -4°C
Humidity: 15%
Barometer: 29.98 inHg , 1015.2 hPa
Clouds: Clear
Visibility: 7 miles , 11 km
2024/06/18 20:46 KLMO 182046Z AUTO 14011G16KT 7SM CLR 24/M04 A2998 RMK AO2 T02371038
 
KBKF - Buckley Angb/Den, Colorado, USA
Distance from station: SE 23mi, 37km
Updated: Thu, 20-Jun-2024 5:06pm MDT
Thunderstorm, Mostly cloudy
Thunderstorm, Mostly cloudy
 Wind from S
Wind: S 20 mph , 31 km/h, Gust: 31 mph , 50 km/h
Temperature: 84°F , 29°C
Dew Point: 48°F , 9°C
Humidity: 29%
Barometer: 30.04 inHg , 1017.3 hPa
Summary: Thunderstorm
Clouds: Mostly cloudy
Visibility: 10 miles , 16 km
Cloud details: Partly cloudy 8000 ft
Mostly cloudy 11000 ft
Mostly cloudy 14000 ft
Mostly cloudy 17000 ft
2024/06/20 23:06 KBKF 202306Z 18017G27KT 10SM TS SCT080 BKN110 BKN140 BKN170 29/09 A3004 RMK AO2A SLP093
KDEN - Denver (dia), Colorado, USA
Distance from station: ESE 23mi, 37km
Updated: Thu, 20-Jun-2024 5:53pm MDT
Light thunderstorm, Rain, Mostly cloudy
Light thunderstorm, Rain, Mostly cloudy
 Wind from NW
Wind: NW 13 mph , 20 km/h
Temperature: 70°F , 21°C
Dew Point: 57°F , 14°C
Humidity: 64%
Barometer: 30.07 inHg , 1018.3 hPa
Summary: Light thunderstorm, Rain
Clouds: Mostly cloudy
Visibility: 8 miles , 13 km
Cloud details: Few Clouds 4000 ft
Partly cloudy 8000 ft
Mostly cloudy 13000 ft
2024/06/20 23:53 KDEN 202353Z 31011KT 8SM -TSRA FEW040 SCT080CB BKN130 21/14 A3007 RMK AO2 PK WND 28036/2334 WSHFT 2319 SLP114 TSB13 FRQ LTGICCCCG NE TS NE MOV NE P0005 60005 T02110139 10333 20206 55000 $
 
KAPA - Denver/Arapahoe, Colorado, USA
Distance from station: SSE 28mi, 46km
Updated: Thu, 20-Jun-2024 5:53pm MDT
Light thunderstorm, Rain, Overcast
Light thunderstorm, Rain, Overcast
 Wind from NNW
Wind: NNW 15 mph , 24 km/h
Temperature: 70°F , 21°C
Dew Point: 55°F , 13°C
Humidity: 60%
Barometer: 30.14 inHg , 1020.7 hPa
Summary: Light thunderstorm, Rain
Clouds: Overcast
Visibility: 8 miles , 13 km
Cloud details: Few Clouds 6500 ft
Mostly cloudy 8000 ft
Mostly cloudy 10000 ft
Overcast 20000 ft
2024/06/20 23:53 KAPA 202353Z 34013KT 8SM -TSRA FEW065 BKN080CB BKN100 OVC200 21/13 A3014 RMK AO2 PK WND 27030/2308 WSHFT 2258 SLP141 RAB20 TSB02 FRQ LTGICCG OHD TS OHD MOV NE P0004 60004 T02110133 10306 20211 53012
KFNL - Ft Collins/Lovel, Colorado, USA
Distance from station: N 35mi, 57km
Updated: Thu, 20-Jun-2024 5:56pm MDT
Clear
Clear
 Wind from NNE
Wind: NNE 12 mph , 19 km/h
Temperature: 81°F , 27°C
Dew Point: 50°F , 10°C
Humidity: 34%
Barometer: 30.06 inHg , 1017.9 hPa
Clouds: Clear
Visibility: 10 miles , 16 km
2024/06/20 23:56 KFNL 202356Z 03010KT 10SM CLR 27/10 A3006 RMK AO2 LTG DSNT E AND SE SLP125 60002 T02720100 10339 20206 53009
 
K0CO - Berthoud Pass, Colorado, USA
Distance from station: WSW 38mi, 61km
Updated: Thu, 20-Jun-2024 5:55pm MDT
Overcast
Overcast
 Wind from WSW
Wind: WSW 12 mph , 19 km/h, Gust: 18 mph , 30 km/h
Temperature: 46°F , 8°C
Wind Chill: 40°F , 4°C
Dew Point: 34°F , 1°C
Humidity: 62%
Barometer: 30.65 inHg , 1037.9 hPa
Clouds: Overcast
Cloud details: Overcast 4800 ft
2024/06/20 23:55 K0CO 202355Z AUTO 24010G16KT 191V261 OVC048 08/01 A3065 RMK AO2 PWINO
KGXY - Greeley/Weld, Colorado, USA
Distance from station: NE 41mi, 66km
Updated: Thu, 20-Jun-2024 5:56pm MDT
Nearby thunderstorm, Clear
Nearby thunderstorm, Clear
 Wind from ENE
Wind: ENE 16 mph , 26 km/h
Temperature: 75°F , 24°C
Dew Point: 55°F , 13°C
Humidity: 50%
Barometer: 30.03 inHg , 1016.9 hPa
Summary: Nearby Thunderstorm
Clouds: Clear
Visibility: 10 miles , 16 km
2024/06/20 23:56 KGXY 202356Z 07014KT 10SM VCTS CLR 24/13 A3003 RMK AO2 PK WND 34031/2257 WSHFT 2316 LTG DSNT NE-S TSE33B49RAE30 SLP134 P0002 6//// T02390133 10361 20183 56017